Terminal Aerodrome Forecast
Issued by NWS Charleston, WV

Current Version | Previous Version | Text Only | Print | Product List | Glossary Off
Versions: 1 2 3 4 5 6 7 8 9 10 11 12 13 14 15 16 17 18 19 20 21 22 23 24 25 26 27 28 29

000
FTUS41 KRLX 141404 AAB
TAFEKN
TAF AMD
KEKN 141404Z 1414/1512 30008KT 4SM -SN OVC035
      TEMPO 1414/1416 2SM -SHSN BKN020
     FM141600 30009G19KT P6SM BKN020
     FM141800 31009KT P6SM BKN025
     FM150000 30003KT P6SM BKN035
      AMD NOT SKED=

USA.gov is the U.S. government's official web portal to all federal, state and local government web resources and services.